Time;durP1;ratioP1;P1;durP2;ratioP2;P2;SDS_P1;SDS_P2;PMS_P1;PMS_P2;Temp;Humidity;BMP_temperature;BMP_pressure;BME280_temperature;BME280_humidity;BME280_pressure;Samples;Min_cycle;Max_cycle;Signal;HPM_P1;HPM_P2
2021/07/26 00:00:44;;;;;;;11.5;10.4;;;;;;;16.59;100;94888.4;;;;
2021/07/26 00:01:44;;;;;;;11.5;10.4;;;;;;;16.59;100;94888.4;;;;
2021/07/26 00:02:45;;;;;;;11.5;10.4;;;;;;;16.59;100;94888.4;;;;
2021/07/26 00:03:45;;;;;;;11.5;10.4;;;;;;;16.59;100;94888.4;;;;
2021/07/26 00:04:46;;;;;;;11.5;10.4;;;;;;;16.59;100;94888.4;;;;
2021/07/26 00:05:47;;;;;;;11.5;10.4;;;;;;;16.59;100;94888.4;;;;
2021/07/26 00:06:55;;;;;;;11.5;10.4;;;;;;;16.59;100;94888.4;;;;
2021/07/26 00:07:55;;;;;;;11.5;10.4;;;;;;;16.59;100;94888.4;;;;
2021/07/26 00:08:56;;;;;;;11.5;10.4;;;;;;;16.59;100;94888.4;;;;
2021/07/26 00:09:57;;;;;;;11.5;10.4;;;;;;;16.59;100;94888.4;;;;
2021/07/26 00:10:58;;;;;;;11.5;10.4;;;;;;;16.59;100;94888.4;;;;
2021/07/26 00:12:00;;;;;;;11.5;10.4;;;;;;;16.59;100;94888.4;;;;
2021/07/26 00:13:01;;;;;;;11.5;10.4;;;;;;;16.59;100;94888.4;;;;
2021/07/26 00:14:02;;;;;;;11.5;10.4;;;;;;;16.59;100;94888.4;;;;
2021/07/26 00:15:05;;;;;;;11.5;10.4;;;;;;;16.59;100;94888.4;;;;
2021/07/26 00:16:07;;;;;;;11.5;10.4;;;;;;;16.59;100;94888.4;;;;
2021/07/26 00:17:08;;;;;;;11.5;10.4;;;;;;;16.59;100;94888.4;;;;
2021/07/26 00:18:08;;;;;;;11.5;10.4;;;;;;;16.59;100;94888.4;;;;
2021/07/26 00:19:09;;;;;;;11.5;10.4;;;;;;;16.59;100;94888.4;;;;
2021/07/26 00:20:10;;;;;;;11.8;10.7;;;;;;;16.47;100;94890.67;;;;
2021/07/26 00:21:13;;;;;;;11.8;10.7;;;;;;;16.47;100;94890.67;;;;
2021/07/26 00:22:13;;;;;;;11.8;10.7;;;;;;;16.47;100;94890.67;;;;
2021/07/26 00:23:14;;;;;;;11.8;10.7;;;;;;;16.47;100;94890.67;;;;
2021/07/26 00:24:15;;;;;;;11.8;10.7;;;;;;;16.47;100;94890.67;;;;
2021/07/26 00:25:16;;;;;;;11.8;10.7;;;;;;;16.47;100;94890.67;;;;
2021/07/26 00:26:17;;;;;;;11.8;10.7;;;;;;;16.47;100;94890.67;;;;
2021/07/26 00:27:17;;;;;;;11.8;10.7;;;;;;;16.47;100;94890.67;;;;
2021/07/26 00:28:18;;;;;;;11.8;10.7;;;;;;;16.47;100;94890.67;;;;
2021/07/26 00:29:19;;;;;;;11.8;10.7;;;;;;;16.47;100;94890.67;;;;
2021/07/26 00:30:19;;;;;;;11.8;10.7;;;;;;;16.47;100;94890.67;;;;
2021/07/26 00:31:20;;;;;;;12.4;11.15;;;;;;;16.46;100;94897.17;;;;
2021/07/26 00:32:20;;;;;;;12.4;11.15;;;;;;;16.46;100;94897.17;;;;
2021/07/26 00:33:29;;;;;;;12.4;11.15;;;;;;;16.46;100;94897.17;;;;
2021/07/26 00:35:35;;;;;;;12.4;11.15;;;;;;;16.46;100;94897.17;;;;
2021/07/26 00:36:35;;;;;;;12.4;11.15;;;;;;;16.46;100;94897.17;;;;
2021/07/26 00:37:37;;;;;;;12.4;11.15;;;;;;;16.46;100;94897.17;;;;
2021/07/26 00:38:38;;;;;;;12.4;11.15;;;;;;;16.46;100;94897.17;;;;
2021/07/26 00:39:38;;;;;;;12.4;11.15;;;;;;;16.46;100;94897.17;;;;
2021/07/26 00:40:39;;;;;;;12.4;11.15;;;;;;;16.46;100;94897.17;;;;
2021/07/26 00:41:40;;;;;;;12.95;11.7;;;;;;;16.55;100;94888.7;;;;
2021/07/26 00:42:41;;;;;;;12.95;11.7;;;;;;;16.55;100;94888.7;;;;
2021/07/26 00:43:42;;;;;;;12.95;11.7;;;;;;;16.55;100;94888.7;;;;
2021/07/26 00:44:42;;;;;;;12.95;11.7;;;;;;;16.55;100;94888.7;;;;
2021/07/26 00:45:43;;;;;;;12.95;11.7;;;;;;;16.55;100;94888.7;;;;
2021/07/26 00:46:43;;;;;;;12.95;11.7;;;;;;;16.55;100;94888.7;;;;
2021/07/26 00:47:45;;;;;;;12.95;11.7;;;;;;;16.55;100;94888.7;;;;
2021/07/26 00:48:46;;;;;;;12.95;11.7;;;;;;;16.55;100;94888.7;;;;
2021/07/26 00:49:47;;;;;;;12.95;11.7;;;;;;;16.55;100;94888.7;;;;
2021/07/26 00:50:48;;;;;;;12.95;11.7;;;;;;;16.55;100;94888.7;;;;
2021/07/26 00:51:48;;;;;;;12.95;11.7;;;;;;;16.55;100;94888.7;;;;
2021/07/26 00:52:51;;;;;;;11.3;10.2;;;;;;;16.58;100;94889.93;;;;
2021/07/26 00:53:51;;;;;;;11.3;10.2;;;;;;;16.58;100;94889.93;;;;
2021/07/26 00:54:53;;;;;;;11.3;10.2;;;;;;;16.58;100;94889.93;;;;
2021/07/26 00:55:54;;;;;;;11.3;10.2;;;;;;;16.58;100;94889.93;;;;
2021/07/26 00:56:55;;;;;;;11.3;10.2;;;;;;;16.58;100;94889.93;;;;
2021/07/26 00:57:58;;;;;;;11.3;10.2;;;;;;;16.58;100;94889.93;;;;
2021/07/26 00:58:59;;;;;;;11.3;10.2;;;;;;;16.58;100;94889.93;;;;
2021/07/26 01:00:00;;;;;;;11.3;10.2;;;;;;;16.58;100;94889.93;;;;
2021/07/26 01:01:02;;;;;;;11.3;10.2;;;;;;;16.58;100;94889.93;;;;
2021/07/26 01:02:03;;;;;;;11.3;10.2;;;;;;;16.58;100;94889.93;;;;
2021/07/26 01:03:04;;;;;;;11.6;10.35;;;;;;;16.68;100;94890.8;;;;
2021/07/26 01:04:04;;;;;;;11.6;10.35;;;;;;;16.68;100;94890.8;;;;
2021/07/26 01:05:05;;;;;;;11.6;10.35;;;;;;;16.68;100;94890.8;;;;
2021/07/26 01:06:06;;;;;;;11.6;10.35;;;;;;;16.68;100;94890.8;;;;
2021/07/26 01:07:07;;;;;;;11.6;10.35;;;;;;;16.68;100;94890.8;;;;
2021/07/26 01:08:07;;;;;;;11.6;10.35;;;;;;;16.68;100;94890.8;;;;
2021/07/26 01:09:08;;;;;;;11.6;10.35;;;;;;;16.68;100;94890.8;;;;
2021/07/26 01:10:09;;;;;;;11.6;10.35;;;;;;;16.68;100;94890.8;;;;
2021/07/26 01:11:10;;;;;;;11.6;10.35;;;;;;;16.68;100;94890.8;;;;
2021/07/26 01:12:11;;;;;;;11.6;10.35;;;;;;;16.68;100;94890.8;;;;
2021/07/26 01:13:11;;;;;;;11.6;10.35;;;;;;;16.68;100;94890.8;;;;
2021/07/26 01:14:12;;;;;;;11.6;10.35;;;;;;;16.68;100;94890.8;;;;
2021/07/26 01:15:14;;;;;;;11.6;10.35;;;;;;;16.68;100;94890.8;;;;
2021/07/26 01:16:14;;;;;;;11.6;10.35;;;;;;;16.68;100;94890.8;;;;
2021/07/26 01:17:15;;;;;;;11.6;10.35;;;;;;;16.68;100;94890.8;;;;
2021/07/26 01:18:48;;;;;;;11.6;10.35;;;;;;;16.68;100;94890.8;;;;
2021/07/26 01:19:48;;;;;;;11.6;10.35;;;;;;;16.68;100;94890.8;;;;
2021/07/26 01:20:49;;;;;;;11.6;10.35;;;;;;;16.68;100;94890.8;;;;
2021/07/26 01:21:51;;;;;;;11.6;10.35;;;;;;;16.68;100;94890.8;;;;
2021/07/26 01:22:51;;;;;;;11.6;10.35;;;;;;;16.68;100;94890.8;;;;
2021/07/26 01:23:52;;;;;;;11.6;10.35;;;;;;;16.68;100;94890.8;;;;
2021/07/26 01:24:52;;;;;;;11.6;10.35;;;;;;;16.68;100;94890.8;;;;
2021/07/26 01:25:53;;;;;;;11.6;10.35;;;;;;;16.68;100;94890.8;;;;
2021/07/26 01:26:54;;;;;;;11.6;10.35;;;;;;;16.68;100;94890.8;;;;
2021/07/26 01:27:54;;;;;;;11.6;10.35;;;;;;;16.68;100;94890.8;;;;
2021/07/26 01:28:55;;;;;;;11.6;10.35;;;;;;;16.68;100;94890.8;;;;
2021/07/26 01:29:57;;;;;;;11.6;10.35;;;;;;;16.68;100;94890.8;;;;
2021/07/26 01:30:58;;;;;;;11.6;10.35;;;;;;;16.68;100;94890.8;;;;
2021/07/26 01:31:59;;;;;;;11.6;10.35;;;;;;;16.68;100;94890.8;;;;
2021/07/26 01:32:59;;;;;;;11.6;10.35;;;;;;;16.68;100;94890.8;;;;
2021/07/26 01:34:00;;;;;;;11.6;10.35;;;;;;;16.68;100;94890.8;;;;
2021/07/26 01:35:01;;;;;;;10.55;9.200001;;;;;;;16.75;100;94887.75;;;;
2021/07/26 01:36:01;;;;;;;10.55;9.200001;;;;;;;16.75;100;94887.75;;;;
2021/07/26 01:37:02;;;;;;;10.55;9.200001;;;;;;;16.75;100;94887.75;;;;
2021/07/26 01:38:03;;;;;;;10.55;9.200001;;;;;;;16.75;100;94887.75;;;;
2021/07/26 01:39:06;;;;;;;10.55;9.200001;;;;;;;16.75;100;94887.75;;;;
2021/07/26 01:40:06;;;;;;;10.55;9.200001;;;;;;;16.75;100;94887.75;;;;
2021/07/26 01:41:10;;;;;;;10.55;9.200001;;;;;;;16.75;100;94887.75;;;;
2021/07/26 01:42:11;;;;;;;10.55;9.200001;;;;;;;16.75;100;94887.75;;;;
2021/07/26 01:43:12;;;;;;;10.55;9.200001;;;;;;;16.75;100;94887.75;;;;
2021/07/26 01:44:13;;;;;;;10.55;9.200001;;;;;;;16.75;100;94887.75;;;;
2021/07/26 01:45:14;;;;;;;10.05;9.049999;;;;;;;16.77;100;94877.78;;;;
2021/07/26 01:46:14;;;;;;;10.05;9.049999;;;;;;;16.77;100;94877.78;;;;
2021/07/26 01:47:26;;;;;;;10.05;9.049999;;;;;;;16.77;100;94877.78;;;;
2021/07/26 01:48:28;;;;;;;10.05;9.049999;;;;;;;16.77;100;94877.78;;;;
2021/07/26 01:49:38;;;;;;;10.05;9.049999;;;;;;;16.77;100;94877.78;;;;
2021/07/26 01:50:50;;;;;;;10.05;9.049999;;;;;;;16.77;100;94877.78;;;;
2021/07/26 01:51:53;;;;;;;10.05;9.049999;;;;;;;16.77;100;94877.78;;;;
2021/07/26 01:52:54;;;;;;;10.05;9.049999;;;;;;;16.77;100;94877.78;;;;
2021/07/26 01:53:54;;;;;;;10.05;9.049999;;;;;;;16.77;100;94877.78;;;;
2021/07/26 01:54:55;;;;;;;10.05;9.049999;;;;;;;16.77;100;94877.78;;;;
2021/07/26 01:55:56;;;;;;;10.3;9.300001;;;;;;;16.7;100;94880.97;;;;
2021/07/26 01:56:57;;;;;;;10.3;9.300001;;;;;;;16.7;100;94880.97;;;;
2021/07/26 01:57:58;;;;;;;10.3;9.300001;;;;;;;16.7;100;94880.97;;;;
2021/07/26 01:59:00;;;;;;;10.3;9.300001;;;;;;;16.7;100;94880.97;;;;
2021/07/26 02:00:01;;;;;;;10.3;9.300001;;;;;;;16.7;100;94880.97;;;;
2021/07/26 02:01:03;;;;;;;10.3;9.300001;;;;;;;16.7;100;94880.97;;;;
2021/07/26 02:02:04;;;;;;;10.3;9.300001;;;;;;;16.7;100;94880.97;;;;
2021/07/26 02:03:05;;;;;;;10.3;9.300001;;;;;;;16.7;100;94880.97;;;;
2021/07/26 02:04:05;;;;;;;10.3;9.300001;;;;;;;16.7;100;94880.97;;;;
2021/07/26 02:05:06;;;;;;;10.3;9.300001;;;;;;;16.7;100;94880.97;;;;
2021/07/26 02:06:07;;;;;;;10.3;9.300001;;;;;;;16.7;100;94880.97;;;;
2021/07/26 02:07:08;;;;;;;10.4;9.450002;;;;;;;16.71;100;94866.67;;;;
2021/07/26 02:08:08;;;;;;;10.4;9.450002;;;;;;;16.71;100;94866.67;;;;
2021/07/26 02:09:09;;;;;;;10.4;9.450002;;;;;;;16.71;100;94866.67;;;;
2021/07/26 02:10:09;;;;;;;10.4;9.450002;;;;;;;16.71;100;94866.67;;;;
2021/07/26 02:11:10;;;;;;;10.4;9.450002;;;;;;;16.71;100;94866.67;;;;
2021/07/26 02:12:11;;;;;;;10.4;9.450002;;;;;;;16.71;100;94866.67;;;;
2021/07/26 02:13:11;;;;;;;10.4;9.450002;;;;;;;16.71;100;94866.67;;;;
2021/07/26 02:14:12;;;;;;;10.4;9.450002;;;;;;;16.71;100;94866.67;;;;
2021/07/26 02:15:12;;;;;;;10.4;9.450002;;;;;;;16.71;100;94866.67;;;;
2021/07/26 02:16:13;;;;;;;10.4;9.450002;;;;;;;16.71;100;94866.67;;;;
2021/07/26 02:17:13;;;;;;;10.2;9.200001;;;;;;;16.66;100;94857.14;;;;
2021/07/26 02:18:15;;;;;;;10.2;9.200001;;;;;;;16.66;100;94857.14;;;;
2021/07/26 02:19:16;;;;;;;10.2;9.200001;;;;;;;16.66;100;94857.14;;;;
2021/07/26 02:20:16;;;;;;;10.2;9.200001;;;;;;;16.66;100;94857.14;;;;
2021/07/26 02:21:17;;;;;;;10.2;9.200001;;;;;;;16.66;100;94857.14;;;;
2021/07/26 02:22:18;;;;;;;10.2;9.200001;;;;;;;16.66;100;94857.14;;;;
2021/07/26 02:23:18;;;;;;;10.2;9.200001;;;;;;;16.66;100;94857.14;;;;
2021/07/26 02:24:19;;;;;;;10.2;9.200001;;;;;;;16.66;100;94857.14;;;;
2021/07/26 02:25:20;;;;;;;10.2;9.200001;;;;;;;16.66;100;94857.14;;;;
2021/07/26 02:26:20;;;;;;;10.2;9.200001;;;;;;;16.66;100;94857.14;;;;
2021/07/26 02:27:21;;;;;;;10.2;9.200001;;;;;;;16.66;100;94857.14;;;;
2021/07/26 02:28:21;;;;;;;9.949998;9.050001;;;;;;;16.65;100;94855.53;;;;
2021/07/26 02:29:22;;;;;;;9.949998;9.050001;;;;;;;16.65;100;94855.53;;;;
2021/07/26 02:30:22;;;;;;;9.949998;9.050001;;;;;;;16.65;100;94855.53;;;;
2021/07/26 02:31:23;;;;;;;9.949998;9.050001;;;;;;;16.65;100;94855.53;;;;
2021/07/26 02:32:23;;;;;;;9.949998;9.050001;;;;;;;16.65;100;94855.53;;;;
2021/07/26 02:33:24;;;;;;;9.949998;9.050001;;;;;;;16.65;100;94855.53;;;;
2021/07/26 02:34:24;;;;;;;9.949998;9.050001;;;;;;;16.65;100;94855.53;;;;
2021/07/26 02:35:27;;;;;;;9.949998;9.050001;;;;;;;16.65;100;94855.53;;;;
2021/07/26 02:36:28;;;;;;;9.949998;9.050001;;;;;;;16.65;100;94855.53;;;;
2021/07/26 02:37:28;;;;;;;9.949998;9.050001;;;;;;;16.65;100;94855.53;;;;
2021/07/26 02:38:29;;;;;;;9.949998;9.050001;;;;;;;16.65;100;94855.53;;;;
2021/07/26 02:39:30;;;;;;;9.949999;8.950002;;;;;;;16.61;100;94867.55;;;;
2021/07/26 02:40:30;;;;;;;9.949999;8.950002;;;;;;;16.61;100;94867.55;;;;
2021/07/26 02:41:31;;;;;;;9.949999;8.950002;;;;;;;16.61;100;94867.55;;;;
2021/07/26 02:42:32;;;;;;;9.949999;8.950002;;;;;;;16.61;100;94867.55;;;;
2021/07/26 02:43:32;;;;;;;9.949999;8.950002;;;;;;;16.61;100;94867.55;;;;
2021/07/26 02:44:33;;;;;;;9.949999;8.950002;;;;;;;16.61;100;94867.55;;;;
2021/07/26 02:45:34;;;;;;;9.949999;8.950002;;;;;;;16.61;100;94867.55;;;;
2021/07/26 02:46:35;;;;;;;9.949999;8.950002;;;;;;;16.61;100;94867.55;;;;
2021/07/26 02:47:36;;;;;;;9.949999;8.950002;;;;;;;16.61;100;94867.55;;;;
2021/07/26 02:48:36;;;;;;;9.949999;8.950002;;;;;;;16.61;100;94867.55;;;;
2021/07/26 02:49:38;;;;;;;9.8;8.8;;;;;;;16.65;100;94887.83;;;;
2021/07/26 02:50:39;;;;;;;9.8;8.8;;;;;;;16.65;100;94887.83;;;;
2021/07/26 02:51:39;;;;;;;9.8;8.8;;;;;;;16.65;100;94887.83;;;;
2021/07/26 02:52:40;;;;;;;9.8;8.8;;;;;;;16.65;100;94887.83;;;;
2021/07/26 02:53:41;;;;;;;9.8;8.8;;;;;;;16.65;100;94887.83;;;;
2021/07/26 02:54:42;;;;;;;9.8;8.8;;;;;;;16.65;100;94887.83;;;;
2021/07/26 02:55:42;;;;;;;9.8;8.8;;;;;;;16.65;100;94887.83;;;;
2021/07/26 02:56:43;;;;;;;9.8;8.8;;;;;;;16.65;100;94887.83;;;;
2021/07/26 02:57:44;;;;;;;9.8;8.8;;;;;;;16.65;100;94887.83;;;;
2021/07/26 02:58:44;;;;;;;9.8;8.8;;;;;;;16.65;100;94887.83;;;;
2021/07/26 02:59:45;;;;;;;9.8;8.8;;;;;;;16.65;100;94887.83;;;;
2021/07/26 03:00:45;;;;;;;9.1;8.299999;;;;;;;16.57;100;94897.83;;;;
2021/07/26 03:01:46;;;;;;;9.1;8.299999;;;;;;;16.57;100;94897.83;;;;
2021/07/26 03:02:46;;;;;;;9.1;8.299999;;;;;;;16.57;100;94897.83;;;;
2021/07/26 03:03:47;;;;;;;9.1;8.299999;;;;;;;16.57;100;94897.83;;;;
2021/07/26 03:04:48;;;;;;;9.1;8.299999;;;;;;;16.57;100;94897.83;;;;
2021/07/26 03:05:48;;;;;;;9.1;8.299999;;;;;;;16.57;100;94897.83;;;;
2021/07/26 03:06:49;;;;;;;9.1;8.299999;;;;;;;16.57;100;94897.83;;;;
2021/07/26 03:07:49;;;;;;;9.1;8.299999;;;;;;;16.57;100;94897.83;;;;
2021/07/26 03:08:49;;;;;;;9.1;8.299999;;;;;;;16.57;100;94897.83;;;;
2021/07/26 03:09:50;;;;;;;9.1;8.299999;;;;;;;16.57;100;94897.83;;;;
2021/07/26 03:10:50;;;;;;;9.1;8.299999;;;;;;;16.57;100;94897.83;;;;
2021/07/26 03:11:58;;;;;;;9.1;8.299999;;;;;;;16.57;100;94897.83;;;;
2021/07/26 03:12:59;;;;;;;9.1;8.299999;;;;;;;16.57;100;94897.83;;;;
2021/07/26 03:13:59;;;;;;;9.1;8.299999;;;;;;;16.57;100;94897.83;;;;
2021/07/26 03:14:59;;;;;;;9.1;8.299999;;;;;;;16.57;100;94897.83;;;;
2021/07/26 03:16:00;;;;;;;9.1;8.299999;;;;;;;16.57;100;94897.83;;;;
2021/07/26 03:17:03;;;;;;;9.1;8.299999;;;;;;;16.57;100;94897.83;;;;
2021/07/26 03:18:05;;;;;;;9.1;8.299999;;;;;;;16.57;100;94897.83;;;;
2021/07/26 03:19:05;;;;;;;9.1;8.299999;;;;;;;16.57;100;94897.83;;;;
2021/07/26 03:20:06;;;;;;;9.1;8.299999;;;;;;;16.57;100;94897.83;;;;
2021/07/26 03:21:07;;;;;;;9.1;8.299999;;;;;;;16.57;100;94897.83;;;;
2021/07/26 03:22:13;;;;;;;8.700001;7.799999;;;;;;;16.57;100;94911.45;;;;
2021/07/26 03:24:19;;;;;;;8.700001;7.799999;;;;;;;16.57;100;94911.45;;;;
2021/07/26 03:25:19;;;;;;;8.700001;7.799999;;;;;;;16.57;100;94911.45;;;;
2021/07/26 03:26:20;;;;;;;8.700001;7.799999;;;;;;;16.57;100;94911.45;;;;
2021/07/26 03:27:21;;;;;;;8.700001;7.799999;;;;;;;16.57;100;94911.45;;;;
2021/07/26 03:28:21;;;;;;;8.700001;7.799999;;;;;;;16.57;100;94911.45;;;;
2021/07/26 03:29:22;;;;;;;8.700001;7.799999;;;;;;;16.57;100;94911.45;;;;
2021/07/26 03:30:22;;;;;;;8.700001;7.799999;;;;;;;16.57;100;94911.45;;;;
2021/07/26 03:31:23;;;;;;;8.700001;7.799999;;;;;;;16.57;100;94911.45;;;;
2021/07/26 03:32:24;;;;;;;8.199999;7.4;;;;;;;16.57;100;94913.76;;;;
2021/07/26 03:33:24;;;;;;;8.199999;7.4;;;;;;;16.57;100;94913.76;;;;
2021/07/26 03:34:26;;;;;;;8.199999;7.4;;;;;;;16.57;100;94913.76;;;;
2021/07/26 03:35:27;;;;;;;8.199999;7.4;;;;;;;16.57;100;94913.76;;;;
2021/07/26 03:36:28;;;;;;;8.199999;7.4;;;;;;;16.57;100;94913.76;;;;
2021/07/26 03:37:28;;;;;;;8.199999;7.4;;;;;;;16.57;100;94913.76;;;;
2021/07/26 03:38:29;;;;;;;8.199999;7.4;;;;;;;16.57;100;94913.76;;;;
2021/07/26 03:39:29;;;;;;;8.199999;7.4;;;;;;;16.57;100;94913.76;;;;
2021/07/26 03:40:30;;;;;;;8.199999;7.4;;;;;;;16.57;100;94913.76;;;;
2021/07/26 03:41:31;;;;;;;8.199999;7.4;;;;;;;16.57;100;94913.76;;;;
2021/07/26 03:42:31;;;;;;;8.199999;7.4;;;;;;;16.57;100;94913.76;;;;
2021/07/26 03:43:32;;;;;;;8.000001;7.299999;;;;;;;16.46;100;94917.24;;;;
2021/07/26 03:44:33;;;;;;;8.000001;7.299999;;;;;;;16.46;100;94917.24;;;;
2021/07/26 03:45:33;;;;;;;8.000001;7.299999;;;;;;;16.46;100;94917.24;;;;
2021/07/26 03:46:34;;;;;;;8.000001;7.299999;;;;;;;16.46;100;94917.24;;;;
2021/07/26 03:47:34;;;;;;;8.000001;7.299999;;;;;;;16.46;100;94917.24;;;;
2021/07/26 03:48:36;;;;;;;8.000001;7.299999;;;;;;;16.46;100;94917.24;;;;
2021/07/26 03:49:37;;;;;;;8.000001;7.299999;;;;;;;16.46;100;94917.24;;;;
2021/07/26 03:50:37;;;;;;;8.000001;7.299999;;;;;;;16.46;100;94917.24;;;;
2021/07/26 03:51:38;;;;;;;8.000001;7.299999;;;;;;;16.46;100;94917.24;;;;
2021/07/26 03:52:38;;;;;;;8.000001;7.299999;;;;;;;16.46;100;94917.24;;;;
2021/07/26 03:53:45;;;;;;;9.150001;8.15;;;;;;;16.45;100;94914.22;;;;
2021/07/26 03:54:46;;;;;;;9.150001;8.15;;;;;;;16.45;100;94914.22;;;;
2021/07/26 03:55:46;;;;;;;9.150001;8.15;;;;;;;16.45;100;94914.22;;;;
2021/07/26 03:56:47;;;;;;;9.150001;8.15;;;;;;;16.45;100;94914.22;;;;
2021/07/26 03:57:47;;;;;;;9.150001;8.15;;;;;;;16.45;100;94914.22;;;;
2021/07/26 03:58:50;;;;;;;9.150001;8.15;;;;;;;16.45;100;94914.22;;;;
2021/07/26 03:59:50;;;;;;;9.150001;8.15;;;;;;;16.45;100;94914.22;;;;
2021/07/26 04:00:51;;;;;;;9.150001;8.15;;;;;;;16.45;100;94914.22;;;;
2021/07/26 04:01:52;;;;;;;9.150001;8.15;;;;;;;16.45;100;94914.22;;;;
2021/07/26 04:02:56;;;;;;;9.150001;8.15;;;;;;;16.45;100;94914.22;;;;
2021/07/26 04:03:58;;;;;;;10.75;9.050001;;;;;;;16.47;100;94921.17;;;;
2021/07/26 04:04:59;;;;;;;10.75;9.050001;;;;;;;16.47;100;94921.17;;;;
2021/07/26 04:06:04;;;;;;;10.75;9.050001;;;;;;;16.47;100;94921.17;;;;
2021/07/26 04:07:09;;;;;;;10.75;9.050001;;;;;;;16.47;100;94921.17;;;;
2021/07/26 04:08:13;;;;;;;10.75;9.050001;;;;;;;16.47;100;94921.17;;;;
2021/07/26 04:09:14;;;;;;;10.75;9.050001;;;;;;;16.47;100;94921.17;;;;
2021/07/26 04:10:15;;;;;;;10.75;9.050001;;;;;;;16.47;100;94921.17;;;;
2021/07/26 04:11:20;;;;;;;10.75;9.050001;;;;;;;16.47;100;94921.17;;;;
2021/07/26 04:12:25;;;;;;;10.75;9.050001;;;;;;;16.47;100;94921.17;;;;
2021/07/26 04:13:26;;;;;;;10.75;9.050001;;;;;;;16.47;100;94921.17;;;;
2021/07/26 04:14:29;;;;;;;10.75;9.050001;;;;;;;16.47;100;94921.17;;;;
2021/07/26 04:15:29;;;;;;;9.049999;8.149999;;;;;;;16.63;100;94924.1;;;;
2021/07/26 04:16:30;;;;;;;9.049999;8.149999;;;;;;;16.63;100;94924.1;;;;
2021/07/26 04:17:30;;;;;;;9.049999;8.149999;;;;;;;16.63;100;94924.1;;;;
2021/07/26 04:18:31;;;;;;;9.049999;8.149999;;;;;;;16.63;100;94924.1;;;;
2021/07/26 04:19:32;;;;;;;9.049999;8.149999;;;;;;;16.63;100;94924.1;;;;
2021/07/26 04:20:32;;;;;;;9.049999;8.149999;;;;;;;16.63;100;94924.1;;;;
2021/07/26 04:21:33;;;;;;;9.049999;8.149999;;;;;;;16.63;100;94924.1;;;;
2021/07/26 04:22:33;;;;;;;9.049999;8.149999;;;;;;;16.63;100;94924.1;;;;
2021/07/26 04:23:34;;;;;;;9.049999;8.149999;;;;;;;16.63;100;94924.1;;;;
2021/07/26 04:24:35;;;;;;;9.049999;8.149999;;;;;;;16.63;100;94924.1;;;;
2021/07/26 04:25:35;;;;;;;9.25;8.399999;;;;;;;16.77;100;94915.96;;;;
2021/07/26 04:26:36;;;;;;;9.25;8.399999;;;;;;;16.77;100;94915.96;;;;
2021/07/26 04:27:37;;;;;;;9.25;8.399999;;;;;;;16.77;100;94915.96;;;;
2021/07/26 04:28:37;;;;;;;9.25;8.399999;;;;;;;16.77;100;94915.96;;;;
2021/07/26 04:29:38;;;;;;;9.25;8.399999;;;;;;;16.77;100;94915.96;;;;
2021/07/26 04:30:38;;;;;;;9.25;8.399999;;;;;;;16.77;100;94915.96;;;;
2021/07/26 04:31:39;;;;;;;9.25;8.399999;;;;;;;16.77;100;94915.96;;;;
2021/07/26 04:32:39;;;;;;;9.25;8.399999;;;;;;;16.77;100;94915.96;;;;
2021/07/26 04:33:41;;;;;;;9.25;8.399999;;;;;;;16.77;100;94915.96;;;;
2021/07/26 04:34:42;;;;;;;9.25;8.399999;;;;;;;16.77;100;94915.96;;;;
2021/07/26 04:35:43;;;;;;;9.25;8.399999;;;;;;;16.77;100;94915.96;;;;
2021/07/26 04:36:43;;;;;;;8.749998;7.849999;;;;;;;17.02;100;94925.89;;;;
2021/07/26 04:37:44;;;;;;;8.749998;7.849999;;;;;;;17.02;100;94925.89;;;;
2021/07/26 04:38:45;;;;;;;8.749998;7.849999;;;;;;;17.02;100;94925.89;;;;
2021/07/26 04:39:45;;;;;;;8.749998;7.849999;;;;;;;17.02;100;94925.89;;;;
2021/07/26 04:40:46;;;;;;;8.749998;7.849999;;;;;;;17.02;100;94925.89;;;;
2021/07/26 04:41:46;;;;;;;8.749998;7.849999;;;;;;;17.02;100;94925.89;;;;
2021/07/26 04:42:47;;;;;;;8.749998;7.849999;;;;;;;17.02;100;94925.89;;;;
2021/07/26 04:43:48;;;;;;;8.749998;7.849999;;;;;;;17.02;100;94925.89;;;;
2021/07/26 04:44:48;;;;;;;8.749998;7.849999;;;;;;;17.02;100;94925.89;;;;
2021/07/26 04:45:49;;;;;;;8.749998;7.849999;;;;;;;17.02;100;94925.89;;;;
2021/07/26 04:46:49;;;;;;;7.650001;6.95;;;;;;;17.17;100;94920.7;;;;
2021/07/26 04:47:50;;;;;;;7.650001;6.95;;;;;;;17.17;100;94920.7;;;;
2021/07/26 04:48:51;;;;;;;7.650001;6.95;;;;;;;17.17;100;94920.7;;;;
2021/07/26 04:49:51;;;;;;;7.650001;6.95;;;;;;;17.17;100;94920.7;;;;
2021/07/26 04:50:52;;;;;;;7.650001;6.95;;;;;;;17.17;100;94920.7;;;;
2021/07/26 04:51:52;;;;;;;7.650001;6.95;;;;;;;17.17;100;94920.7;;;;
2021/07/26 04:52:54;;;;;;;7.650001;6.95;;;;;;;17.17;100;94920.7;;;;
2021/07/26 04:53:54;;;;;;;7.650001;6.95;;;;;;;17.17;100;94920.7;;;;
2021/07/26 04:54:55;;;;;;;7.650001;6.95;;;;;;;17.17;100;94920.7;;;;
2021/07/26 04:55:56;;;;;;;7.650001;6.95;;;;;;;17.17;100;94920.7;;;;
2021/07/26 04:56:56;;;;;;;7.650001;6.95;;;;;;;17.17;100;94920.7;;;;
2021/07/26 04:57:57;;;;;;;7.05;6.35;;;;;;;17.31;100;94935.86;;;;
2021/07/26 04:58:57;;;;;;;7.05;6.35;;;;;;;17.31;100;94935.86;;;;
2021/07/26 04:59:58;;;;;;;7.05;6.35;;;;;;;17.31;100;94935.86;;;;
2021/07/26 05:00:58;;;;;;;7.05;6.35;;;;;;;17.31;100;94935.86;;;;
2021/07/26 05:01:59;;;;;;;7.05;6.35;;;;;;;17.31;100;94935.86;;;;
2021/07/26 05:02:59;;;;;;;7.05;6.35;;;;;;;17.31;100;94935.86;;;;
2021/07/26 05:04:00;;;;;;;7.05;6.35;;;;;;;17.31;100;94935.86;;;;
2021/07/26 05:05:01;;;;;;;7.05;6.35;;;;;;;17.31;100;94935.86;;;;
2021/07/26 05:06:01;;;;;;;7.05;6.35;;;;;;;17.31;100;94935.86;;;;
2021/07/26 05:07:05;;;;;;;7.05;6.35;;;;;;;17.31;100;94935.86;;;;
2021/07/26 05:08:05;;;;;;;6.85;6.249999;;;;;;;17.45;100;94964.15;;;;
2021/07/26 05:09:06;;;;;;;6.85;6.249999;;;;;;;17.45;100;94964.15;;;;
2021/07/26 05:10:06;;;;;;;6.85;6.249999;;;;;;;17.45;100;94964.15;;;;
2021/07/26 05:11:10;;;;;;;6.85;6.249999;;;;;;;17.45;100;94964.15;;;;
2021/07/26 05:12:12;;;;;;;6.85;6.249999;;;;;;;17.45;100;94964.15;;;;
2021/07/26 05:13:13;;;;;;;6.85;6.249999;;;;;;;17.45;100;94964.15;;;;
2021/07/26 05:14:14;;;;;;;6.85;6.249999;;;;;;;17.45;100;94964.15;;;;
2021/07/26 05:15:14;;;;;;;6.85;6.249999;;;;;;;17.45;100;94964.15;;;;
2021/07/26 05:16:15;;;;;;;6.85;6.249999;;;;;;;17.45;100;94964.15;;;;
2021/07/26 05:17:19;;;;;;;6.85;6.249999;;;;;;;17.45;100;94964.15;;;;
2021/07/26 05:18:20;;;;;;;6.85;6.249999;;;;;;;17.45;100;94964.15;;;;
2021/07/26 05:19:20;;;;;;;6.799999;6.1;;;;;;;17.76;100;94962.78;;;;
2021/07/26 05:20:21;;;;;;;6.799999;6.1;;;;;;;17.76;100;94962.78;;;;
2021/07/26 05:21:22;;;;;;;6.799999;6.1;;;;;;;17.76;100;94962.78;;;;
2021/07/26 05:22:23;;;;;;;6.799999;6.1;;;;;;;17.76;100;94962.78;;;;
2021/07/26 05:23:23;;;;;;;6.799999;6.1;;;;;;;17.76;100;94962.78;;;;
2021/07/26 05:24:24;;;;;;;6.799999;6.1;;;;;;;17.76;100;94962.78;;;;
2021/07/26 05:25:24;;;;;;;6.799999;6.1;;;;;;;17.76;100;94962.78;;;;
2021/07/26 05:26:25;;;;;;;6.799999;6.1;;;;;;;17.76;100;94962.78;;;;
2021/07/26 05:27:28;;;;;;;6.799999;6.1;;;;;;;17.76;100;94962.78;;;;
2021/07/26 05:28:28;;;;;;;6.799999;6.1;;;;;;;17.76;100;94962.78;;;;
2021/07/26 05:29:29;;;;;;;6.599999;6;;;;;;;18;100;94974.02;;;;
2021/07/26 05:30:31;;;;;;;6.599999;6;;;;;;;18;100;94974.02;;;;
2021/07/26 05:31:32;;;;;;;6.599999;6;;;;;;;18;100;94974.02;;;;
2021/07/26 05:32:32;;;;;;;6.599999;6;;;;;;;18;100;94974.02;;;;
2021/07/26 05:33:33;;;;;;;6.599999;6;;;;;;;18;100;94974.02;;;;
2021/07/26 05:34:33;;;;;;;6.599999;6;;;;;;;18;100;94974.02;;;;
2021/07/26 05:35:34;;;;;;;6.599999;6;;;;;;;18;100;94974.02;;;;
2021/07/26 05:36:34;;;;;;;6.599999;6;;;;;;;18;100;94974.02;;;;
2021/07/26 05:37:35;;;;;;;6.599999;6;;;;;;;18;100;94974.02;;;;
2021/07/26 05:38:36;;;;;;;6.599999;6;;;;;;;18;100;94974.02;;;;
2021/07/26 05:39:37;;;;;;;6.599999;6;;;;;;;18;100;94974.02;;;;
2021/07/26 05:40:37;;;;;;;7.6;5.799999;;;;;;;18.27;100;94967.56;;;;
2021/07/26 05:41:38;;;;;;;7.6;5.799999;;;;;;;18.27;100;94967.56;;;;
2021/07/26 05:42:38;;;;;;;7.6;5.799999;;;;;;;18.27;100;94967.56;;;;
2021/07/26 05:43:39;;;;;;;7.6;5.799999;;;;;;;18.27;100;94967.56;;;;
2021/07/26 05:44:39;;;;;;;7.6;5.799999;;;;;;;18.27;100;94967.56;;;;
2021/07/26 05:45:42;;;;;;;7.6;5.799999;;;;;;;18.27;100;94967.56;;;;
2021/07/26 05:46:42;;;;;;;7.6;5.799999;;;;;;;18.27;100;94967.56;;;;
2021/07/26 05:47:43;;;;;;;7.6;5.799999;;;;;;;18.27;100;94967.56;;;;
2021/07/26 05:48:44;;;;;;;7.6;5.799999;;;;;;;18.27;100;94967.56;;;;
2021/07/26 05:49:44;;;;;;;7.6;5.799999;;;;;;;18.27;100;94967.56;;;;
2021/07/26 05:50:45;;;;;;;7.550001;5.699999;;;;;;;18.54;100;94946.89;;;;
2021/07/26 05:51:46;;;;;;;7.550001;5.699999;;;;;;;18.54;100;94946.89;;;;
2021/07/26 05:52:46;;;;;;;7.550001;5.699999;;;;;;;18.54;100;94946.89;;;;
2021/07/26 05:53:47;;;;;;;7.550001;5.699999;;;;;;;18.54;100;94946.89;;;;
2021/07/26 05:54:48;;;;;;;7.550001;5.699999;;;;;;;18.54;100;94946.89;;;;
2021/07/26 05:55:48;;;;;;;7.550001;5.699999;;;;;;;18.54;100;94946.89;;;;
2021/07/26 05:56:50;;;;;;;7.550001;5.699999;;;;;;;18.54;100;94946.89;;;;
2021/07/26 05:57:51;;;;;;;7.550001;5.699999;;;;;;;18.54;100;94946.89;;;;